sensor_id;sensor_type;location;lat;lon;timestamp;temperature;humidity
13610;DHT22;6876;50.788;4.940;2023-07-13T00:01:35;16.10;1.00
13610;DHT22;6876;50.788;4.940;2023-07-13T00:04:25;16.10;1.00
13610;DHT22;6876;50.788;4.940;2023-07-13T00:07:12;16.20;1.00
13610;DHT22;6876;50.788;4.940;2023-07-13T00:10:02;16.10;99.90
13610;DHT22;6876;50.788;4.940;2023-07-13T00:12:49;16.10;1.00
13610;DHT22;6876;50.788;4.940;2023-07-13T00:15:37;15.90;99.90
13610;DHT22;6876;50.788;4.940;2023-07-13T00:18:25;15.90;99.90
13610;DHT22;6876;50.788;4.940;2023-07-13T00:21:12;15.80;1.00
13610;DHT22;6876;50.788;4.940;2023-07-13T00:24:00;15.80;99.90
13610;DHT22;6876;50.788;4.940;2023-07-13T00:26:48;15.80;1.00
13610;DHT22;6876;50.788;4.940;2023-07-13T00:29:36;15.80;99.90
13610;DHT22;6876;50.788;4.940;2023-07-13T00:32:23;15.80;99.90
13610;DHT22;6876;50.788;4.940;2023-07-13T00:35:14;15.70;1.00
13610;DHT22;6876;50.788;4.940;2023-07-13T00:38:01;15.70;1.00
13610;DHT22;6876;50.788;4.940;2023-07-13T00:40:48;15.60;1.00
13610;DHT22;6876;50.788;4.940;2023-07-13T00:43:37;15.60;32.00
13610;DHT22;6876;50.788;4.940;2023-07-13T00:46:27;15.60;1.00
13610;DHT22;6876;50.788;4.940;2023-07-13T00:49:16;15.60;1.00
13610;DHT22;6876;50.788;4.940;2023-07-13T00:52:07;15.50;1.00
13610;DHT22;6876;50.788;4.940;2023-07-13T00:54:54;15.50;1.00
13610;DHT22;6876;50.788;4.940;2023-07-13T00:57:43;15.50;1.00
13610;DHT22;6876;50.788;4.940;2023-07-13T01:00:35;15.50;1.00
13610;DHT22;6876;50.788;4.940;2023-07-13T01:03:23;15.50;5.80
13610;DHT22;6876;50.788;4.940;2023-07-13T01:06:10;15.50;99.90
13610;DHT22;6876;50.788;4.940;2023-07-13T01:08:58;15.50;99.90
13610;DHT22;6876;50.788;4.940;2023-07-13T01:11:46;15.50;99.90
13610;DHT22;6876;50.788;4.940;2023-07-13T01:14:34;15.40;1.00
13610;DHT22;6876;50.788;4.940;2023-07-13T01:17:22;15.40;1.00
13610;DHT22;6876;50.788;4.940;2023-07-13T01:20:09;15.30;1.00
13610;DHT22;6876;50.788;4.940;2023-07-13T01:22:58;15.30;99.90
13610;DHT22;6876;50.788;4.940;2023-07-13T01:25:45;15.30;1.00
13610;DHT22;6876;50.788;4.940;2023-07-13T01:28:33;15.30;99.90
13610;DHT22;6876;50.788;4.940;2023-07-13T01:31:23;15.30;1.00
13610;DHT22;6876;50.788;4.940;2023-07-13T01:34:10;15.30;99.90
13610;DHT22;6876;50.788;4.940;2023-07-13T01:36:58;15.20;99.90
13610;DHT22;6876;50.788;4.940;2023-07-13T01:39:46;15.30;99.90
13610;DHT22;6876;50.788;4.940;2023-07-13T01:42:35;15.30;99.90
13610;DHT22;6876;50.788;4.940;2023-07-13T01:45:22;15.30;99.90
13610;DHT22;6876;50.788;4.940;2023-07-13T01:48:10;15.20;99.90
13610;DHT22;6876;50.788;4.940;2023-07-13T01:50:57;15.30;99.90
13610;DHT22;6876;50.788;4.940;2023-07-13T01:53:44;15.30;99.90
13610;DHT22;6876;50.788;4.940;2023-07-13T01:56:33;15.30;99.90
13610;DHT22;6876;50.788;4.940;2023-07-13T01:59:20;15.30;99.90
13610;DHT22;6876;50.788;4.940;2023-07-13T02:02:07;15.20;1.00
13610;DHT22;6876;50.788;4.940;2023-07-13T02:04:55;15.10;99.90
13610;DHT22;6876;50.788;4.940;2023-07-13T02:07:42;15.00;99.90
13610;DHT22;6876;50.788;4.940;2023-07-13T02:10:30;15.10;99.90
13610;DHT22;6876;50.788;4.940;2023-07-13T02:13:18;15.10;99.90
13610;DHT22;6876;50.788;4.940;2023-07-13T02:16:06;15.10;1.00
13610;DHT22;6876;50.788;4.940;2023-07-13T02:18:53;15.10;99.90
13610;DHT22;6876;50.788;4.940;2023-07-13T02:21:41;15.10;99.90
13610;DHT22;6876;50.788;4.940;2023-07-13T02:24:28;15.10;1.00
13610;DHT22;6876;50.788;4.940;2023-07-13T02:27:16;15.00;1.00
13610;DHT22;6876;50.788;4.940;2023-07-13T02:30:06;15.00;1.00
13610;DHT22;6876;50.788;4.940;2023-07-13T02:32:53;15.00;1.00
13610;DHT22;6876;50.788;4.940;2023-07-13T02:35:40;15.00;1.00
13610;DHT22;6876;50.788;4.940;2023-07-13T02:38:28;15.00;1.00
13610;DHT22;6876;50.788;4.940;2023-07-13T02:41:15;15.00;1.00
13610;DHT22;6876;50.788;4.940;2023-07-13T02:44:02;15.00;1.00
13610;DHT22;6876;50.788;4.940;2023-07-13T02:46:51;15.00;1.00
13610;DHT22;6876;50.788;4.940;2023-07-13T02:49:38;15.00;1.00
13610;DHT22;6876;50.788;4.940;2023-07-13T02:52:27;15.00;1.00
13610;DHT22;6876;50.788;4.940;2023-07-13T02:55:14;15.00;1.00
13610;DHT22;6876;50.788;4.940;2023-07-13T02:58:02;15.00;1.00
13610;DHT22;6876;50.788;4.940;2023-07-13T03:00:49;15.00;1.00
13610;DHT22;6876;50.788;4.940;2023-07-13T03:03:38;15.00;1.00
13610;DHT22;6876;50.788;4.940;2023-07-13T03:06:25;15.00;1.00
13610;DHT22;6876;50.788;4.940;2023-07-13T03:09:15;14.90;1.00
13610;DHT22;6876;50.788;4.940;2023-07-13T03:12:03;15.00;1.00
13610;DHT22;6876;50.788;4.940;2023-07-13T03:14:50;14.90;1.00
13610;DHT22;6876;50.788;4.940;2023-07-13T03:17:38;15.00;1.00
13610;DHT22;6876;50.788;4.940;2023-07-13T03:20:26;15.00;1.00
13610;DHT22;6876;50.788;4.940;2023-07-13T03:23:13;15.00;1.00
13610;DHT22;6876;50.788;4.940;2023-07-13T03:26:03;15.10;1.00
13610;DHT22;6876;50.788;4.940;2023-07-13T03:28:50;15.00;1.00
13610;DHT22;6876;50.788;4.940;2023-07-13T03:31:37;15.00;1.00
13610;DHT22;6876;50.788;4.940;2023-07-13T03:34:25;14.90;1.00
13610;DHT22;6876;50.788;4.940;2023-07-13T03:37:13;14.90;1.00
13610;DHT22;6876;50.788;4.940;2023-07-13T03:40:01;14.90;1.00
13610;DHT22;6876;50.788;4.940;2023-07-13T03:42:48;14.90;1.00
13610;DHT22;6876;50.788;4.940;2023-07-13T03:45:37;14.90;1.00
13610;DHT22;6876;50.788;4.940;2023-07-13T03:48:24;14.90;1.00
13610;DHT22;6876;50.788;4.940;2023-07-13T03:51:13;14.90;1.00
13610;DHT22;6876;50.788;4.940;2023-07-13T03:54:03;14.90;1.00
13610;DHT22;6876;50.788;4.940;2023-07-13T03:56:51;14.90;1.00
13610;DHT22;6876;50.788;4.940;2023-07-13T03:59:38;14.90;1.00
13610;DHT22;6876;50.788;4.940;2023-07-13T04:02:26;14.90;1.00
13610;DHT22;6876;50.788;4.940;2023-07-13T04:05:13;14.90;1.00
13610;DHT22;6876;50.788;4.940;2023-07-13T04:08:01;14.90;1.00
13610;DHT22;6876;50.788;4.940;2023-07-13T04:10:49;15.00;1.00
13610;DHT22;6876;50.788;4.940;2023-07-13T04:13:36;15.00;1.00
13610;DHT22;6876;50.788;4.940;2023-07-13T04:16:24;15.00;1.00
13610;DHT22;6876;50.788;4.940;2023-07-13T04:19:12;15.10;1.00
13610;DHT22;6876;50.788;4.940;2023-07-13T04:21:59;15.20;1.00
13610;DHT22;6876;50.788;4.940;2023-07-13T04:24:47;15.30;1.00
13610;DHT22;6876;50.788;4.940;2023-07-13T04:27:35;15.40;1.00
13610;DHT22;6876;50.788;4.940;2023-07-13T04:30:23;15.50;1.00
13610;DHT22;6876;50.788;4.940;2023-07-13T04:33:10;15.70;1.00
13610;DHT22;6876;50.788;4.940;2023-07-13T04:35:58;15.70;1.00
13610;DHT22;6876;50.788;4.940;2023-07-13T04:38:45;15.70;1.00
13610;DHT22;6876;50.788;4.940;2023-07-13T04:41:32;15.70;1.00
13610;DHT22;6876;50.788;4.940;2023-07-13T04:44:21;15.70;1.00
13610;DHT22;6876;50.788;4.940;2023-07-13T04:47:08;15.80;1.00
13610;DHT22;6876;50.788;4.940;2023-07-13T04:49:55;15.80;1.00
13610;DHT22;6876;50.788;4.940;2023-07-13T04:52:43;15.90;1.00
13610;DHT22;6876;50.788;4.940;2023-07-13T04:55:31;16.00;1.00
13610;DHT22;6876;50.788;4.940;2023-07-13T04:58:18;16.00;1.00
13610;DHT22;6876;50.788;4.940;2023-07-13T05:01:07;16.10;1.00
13610;DHT22;6876;50.788;4.940;2023-07-13T05:03:55;16.10;1.00
13610;DHT22;6876;50.788;4.940;2023-07-13T05:06:44;16.10;1.00
13610;DHT22;6876;50.788;4.940;2023-07-13T05:09:31;16.20;1.00
13610;DHT22;6876;50.788;4.940;2023-07-13T05:12:19;16.20;1.00
13610;DHT22;6876;50.788;4.940;2023-07-13T05:15:07;16.20;1.00
13610;DHT22;6876;50.788;4.940;2023-07-13T05:17:55;16.30;1.00
13610;DHT22;6876;50.788;4.940;2023-07-13T05:20:43;16.20;1.00
13610;DHT22;6876;50.788;4.940;2023-07-13T05:23:31;16.30;1.00
13610;DHT22;6876;50.788;4.940;2023-07-13T05:26:18;16.40;1.00
13610;DHT22;6876;50.788;4.940;2023-07-13T05:29:06;16.50;1.00
13610;DHT22;6876;50.788;4.940;2023-07-13T05:31:53;16.60;1.00
13610;DHT22;6876;50.788;4.940;2023-07-13T05:34:42;16.70;1.00
13610;DHT22;6876;50.788;4.940;2023-07-13T05:37:29;16.70;1.00
13610;DHT22;6876;50.788;4.940;2023-07-13T05:40:17;16.90;1.00
13610;DHT22;6876;50.788;4.940;2023-07-13T05:43:04;16.90;1.00
13610;DHT22;6876;50.788;4.940;2023-07-13T05:45:53;17.10;1.00
13610;DHT22;6876;50.788;4.940;2023-07-13T05:48:40;17.10;99.90
13610;DHT22;6876;50.788;4.940;2023-07-13T05:51:29;17.20;99.90
13610;DHT22;6876;50.788;4.940;2023-07-13T05:54:16;17.40;99.90
13610;DHT22;6876;50.788;4.940;2023-07-13T05:57:04;17.40;99.90
13610;DHT22;6876;50.788;4.940;2023-07-13T05:59:51;17.40;99.90
13610;DHT22;6876;50.788;4.940;2023-07-13T06:02:39;17.40;99.90
13610;DHT22;6876;50.788;4.940;2023-07-13T06:05:26;17.40;99.90
13610;DHT22;6876;50.788;4.940;2023-07-13T06:08:16;17.40;92.60
13610;DHT22;6876;50.788;4.940;2023-07-13T06:11:04;17.30;99.90
13610;DHT22;6876;50.788;4.940;2023-07-13T06:13:52;17.40;1.00
13610;DHT22;6876;50.788;4.940;2023-07-13T06:16:40;17.50;96.30
13610;DHT22;6876;50.788;4.940;2023-07-13T06:19:28;17.50;6.50
13610;DHT22;6876;50.788;4.940;2023-07-13T06:22:15;17.70;1.00
13610;DHT22;6876;50.788;4.940;2023-07-13T06:25:05;17.70;1.00
13610;DHT22;6876;50.788;4.940;2023-07-13T06:27:52;17.80;1.00
13610;DHT22;6876;50.788;4.940;2023-07-13T06:30:39;17.80;1.00
13610;DHT22;6876;50.788;4.940;2023-07-13T06:33:27;17.90;1.00
13610;DHT22;6876;50.788;4.940;2023-07-13T06:36:14;17.90;1.00
13610;DHT22;6876;50.788;4.940;2023-07-13T06:39:01;18.00;99.90
13610;DHT22;6876;50.788;4.940;2023-07-13T06:41:50;17.90;99.90
13610;DHT22;6876;50.788;4.940;2023-07-13T06:44:37;17.80;99.90
13610;DHT22;6876;50.788;4.940;2023-07-13T06:47:24;17.80;99.90
13610;DHT22;6876;50.788;4.940;2023-07-13T06:50:11;17.90;99.90
13610;DHT22;6876;50.788;4.940;2023-07-13T06:52:59;17.80;99.90
13610;DHT22;6876;50.788;4.940;2023-07-13T06:55:46;17.90;1.00
13610;DHT22;6876;50.788;4.940;2023-07-13T06:58:35;17.90;13.60
13610;DHT22;6876;50.788;4.940;2023-07-13T07:01:22;18.00;1.00
13610;DHT22;6876;50.788;4.940;2023-07-13T07:04:10;18.10;1.00
13610;DHT22;6876;50.788;4.940;2023-07-13T07:06:57;18.10;1.00
13610;DHT22;6876;50.788;4.940;2023-07-13T07:09:45;18.00;1.00
13610;DHT22;6876;50.788;4.940;2023-07-13T07:12:32;17.90;1.00
13610;DHT22;6876;50.788;4.940;2023-07-13T07:15:21;18.00;99.90
13610;DHT22;6876;50.788;4.940;2023-07-13T07:18:08;18.20;99.90
13610;DHT22;6876;50.788;4.940;2023-07-13T07:20:55;18.40;1.00
13610;DHT22;6876;50.788;4.940;2023-07-13T07:23:46;18.40;99.90
13610;DHT22;6876;50.788;4.940;2023-07-13T07:26:33;18.60;1.00
13610;DHT22;6876;50.788;4.940;2023-07-13T07:29:21;18.90;86.90
13610;DHT22;6876;50.788;4.940;2023-07-13T07:32:13;19.00;99.90
13610;DHT22;6876;50.788;4.940;2023-07-13T07:35:00;19.20;1.00
13610;DHT22;6876;50.788;4.940;2023-07-13T07:37:48;19.30;1.00
13610;DHT22;6876;50.788;4.940;2023-07-13T07:40:36;19.40;1.00
13610;DHT22;6876;50.788;4.940;2023-07-13T07:43:24;19.60;1.00
13610;DHT22;6876;50.788;4.940;2023-07-13T07:46:11;19.80;99.90
13610;DHT22;6876;50.788;4.940;2023-07-13T07:49:00;19.70;99.90
13610;DHT22;6876;50.788;4.940;2023-07-13T07:51:47;19.70;1.00
13610;DHT22;6876;50.788;4.940;2023-07-13T07:54:34;19.90;99.90
13610;DHT22;6876;50.788;4.940;2023-07-13T07:57:21;19.90;1.00
13610;DHT22;6876;50.788;4.940;2023-07-13T08:00:12;19.80;99.90
13610;DHT22;6876;50.788;4.940;2023-07-13T08:02:59;19.70;1.00
13610;DHT22;6876;50.788;4.940;2023-07-13T08:05:48;19.60;99.90
13610;DHT22;6876;50.788;4.940;2023-07-13T08:08:35;19.80;1.00
13610;DHT22;6876;50.788;4.940;2023-07-13T08:11:23;20.00;6.20
13610;DHT22;6876;50.788;4.940;2023-07-13T08:14:10;20.00;99.90
13610;DHT22;6876;50.788;4.940;2023-07-13T08:16:57;20.10;99.90
13610;DHT22;6876;50.788;4.940;2023-07-13T08:19:44;20.30;99.90
13610;DHT22;6876;50.788;4.940;2023-07-13T08:22:33;20.30;29.50
13610;DHT22;6876;50.788;4.940;2023-07-13T08:25:21;20.30;1.00
13610;DHT22;6876;50.788;4.940;2023-07-13T08:28:08;20.40;99.90
13610;DHT22;6876;50.788;4.940;2023-07-13T08:31:00;20.40;1.00
13610;DHT22;6876;50.788;4.940;2023-07-13T08:33:48;20.60;1.00
13610;DHT22;6876;50.788;4.940;2023-07-13T08:36:35;20.80;1.00
13610;DHT22;6876;50.788;4.940;2023-07-13T08:39:24;20.70;1.00
13610;DHT22;6876;50.788;4.940;2023-07-13T08:42:26;20.50;99.90
13610;DHT22;6876;50.788;4.940;2023-07-13T08:45:21;20.40;99.90
13610;DHT22;6876;50.788;4.940;2023-07-13T08:48:13;20.70;1.00
13610;DHT22;6876;50.788;4.940;2023-07-13T08:51:08;20.60;99.90
13610;DHT22;6876;50.788;4.940;2023-07-13T08:53:59;20.50;99.90
13610;DHT22;6876;50.788;4.940;2023-07-13T08:56:50;20.60;99.90
13610;DHT22;6876;50.788;4.940;2023-07-13T08:59:40;20.70;1.00
13610;DHT22;6876;50.788;4.940;2023-07-13T09:02:33;20.60;99.90
13610;DHT22;6876;50.788;4.940;2023-07-13T09:05:28;21.10;1.00
13610;DHT22;6876;50.788;4.940;2023-07-13T09:08:30;21.60;99.90
13610;DHT22;6876;50.788;4.940;2023-07-13T09:11:36;21.80;72.60
13610;DHT22;6876;50.788;4.940;2023-07-13T09:14:34;21.80;1.00
13610;DHT22;6876;50.788;4.940;2023-07-13T09:17:26;21.70;1.00
13610;DHT22;6876;50.788;4.940;2023-07-13T09:20:27;21.60;1.00
13610;DHT22;6876;50.788;4.940;2023-07-13T09:23:19;21.70;1.00
13610;DHT22;6876;50.788;4.940;2023-07-13T09:26:11;21.80;1.00
13610;DHT22;6876;50.788;4.940;2023-07-13T09:29:06;22.30;1.00
13610;DHT22;6876;50.788;4.940;2023-07-13T09:32:02;22.50;1.00
13610;DHT22;6876;50.788;4.940;2023-07-13T09:34:51;23.40;1.00
13610;DHT22;6876;50.788;4.940;2023-07-13T09:37:39;23.70;99.90
13610;DHT22;6876;50.788;4.940;2023-07-13T09:40:35;24.60;99.90
13610;DHT22;6876;50.788;4.940;2023-07-13T09:43:23;25.20;99.90
13610;DHT22;6876;50.788;4.940;2023-07-13T09:46:20;24.80;99.90
13610;DHT22;6876;50.788;4.940;2023-07-13T09:49:11;24.90;99.90
13610;DHT22;6876;50.788;4.940;2023-07-13T09:51:59;25.50;44.60
13610;DHT22;6876;50.788;4.940;2023-07-13T09:54:50;26.30;1.00
13610;DHT22;6876;50.788;4.940;2023-07-13T09:57:46;26.90;99.90
13610;DHT22;6876;50.788;4.940;2023-07-13T10:00:34;25.90;99.90
13610;DHT22;6876;50.788;4.940;2023-07-13T10:03:23;25.80;99.90
13610;DHT22;6876;50.788;4.940;2023-07-13T10:06:14;26.30;99.90
13610;DHT22;6876;50.788;4.940;2023-07-13T10:09:02;26.50;99.90
13610;DHT22;6876;50.788;4.940;2023-07-13T10:11:50;26.60;99.90
13610;DHT22;6876;50.788;4.940;2023-07-13T10:14:38;25.80;99.90
13610;DHT22;6876;50.788;4.940;2023-07-13T10:17:29;25.20;99.90
13610;DHT22;6876;50.788;4.940;2023-07-13T10:20:17;24.80;99.90
13610;DHT22;6876;50.788;4.940;2023-07-13T10:23:13;25.30;99.90
13610;DHT22;6876;50.788;4.940;2023-07-13T10:26:03;25.40;99.90
13610;DHT22;6876;50.788;4.940;2023-07-13T10:28:55;24.80;99.90
13610;DHT22;6876;50.788;4.940;2023-07-13T10:31:45;24.50;99.90
13610;DHT22;6876;50.788;4.940;2023-07-13T10:34:33;23.90;99.90
13610;DHT22;6876;50.788;4.940;2023-07-13T10:37:23;23.50;99.90
13610;DHT22;6876;50.788;4.940;2023-07-13T10:40:18;23.20;99.90
13610;DHT22;6876;50.788;4.940;2023-07-13T10:43:17;23.00;99.90
13610;DHT22;6876;50.788;4.940;2023-07-13T10:46:06;23.20;99.90
13610;DHT22;6876;50.788;4.940;2023-07-13T10:48:58;24.00;99.90
13610;DHT22;6876;50.788;4.940;2023-07-13T10:51:46;24.30;99.90
13610;DHT22;6876;50.788;4.940;2023-07-13T10:54:34;24.50;99.90
13610;DHT22;6876;50.788;4.940;2023-07-13T10:57:24;24.00;99.90
13610;DHT22;6876;50.788;4.940;2023-07-13T11:00:16;23.90;99.90
13610;DHT22;6876;50.788;4.940;2023-07-13T11:03:04;24.30;99.90
13610;DHT22;6876;50.788;4.940;2023-07-13T11:06:05;24.70;99.90
13610;DHT22;6876;50.788;4.940;2023-07-13T11:08:56;25.00;99.90
13610;DHT22;6876;50.788;4.940;2023-07-13T11:11:43;25.20;99.90
13610;DHT22;6876;50.788;4.940;2023-07-13T11:14:36;25.20;99.90
13610;DHT22;6876;50.788;4.940;2023-07-13T11:17:34;25.20;99.90
13610;DHT22;6876;50.788;4.940;2023-07-13T11:20:36;25.00;99.90
13610;DHT22;6876;50.788;4.940;2023-07-13T11:23:30;24.90;99.90
13610;DHT22;6876;50.788;4.940;2023-07-13T11:26:39;24.30;99.90
13610;DHT22;6876;50.788;4.940;2023-07-13T11:29:35;24.20;99.90
13610;DHT22;6876;50.788;4.940;2023-07-13T11:32:25;24.70;99.90
13610;DHT22;6876;50.788;4.940;2023-07-13T11:35:21;24.70;99.90
13610;DHT22;6876;50.788;4.940;2023-07-13T11:38:14;25.00;99.90
13610;DHT22;6876;50.788;4.940;2023-07-13T11:41:06;25.20;99.90
13610;DHT22;6876;50.788;4.940;2023-07-13T11:43:55;24.80;99.90
13610;DHT22;6876;50.788;4.940;2023-07-13T11:46:52;24.50;99.90
13610;DHT22;6876;50.788;4.940;2023-07-13T11:49:44;25.00;99.90
13610;DHT22;6876;50.788;4.940;2023-07-13T11:52:35;25.00;99.90
13610;DHT22;6876;50.788;4.940;2023-07-13T11:55:23;25.40;99.90
13610;DHT22;6876;50.788;4.940;2023-07-13T11:58:11;25.10;99.90
13610;DHT22;6876;50.788;4.940;2023-07-13T12:00:59;24.90;99.90
13610;DHT22;6876;50.788;4.940;2023-07-13T12:03:50;25.00;99.90
13610;DHT22;6876;50.788;4.940;2023-07-13T12:06:37;24.80;99.90
13610;DHT22;6876;50.788;4.940;2023-07-13T12:09:27;25.10;99.90
13610;DHT22;6876;50.788;4.940;2023-07-13T12:12:18;25.30;99.90
13610;DHT22;6876;50.788;4.940;2023-07-13T12:15:06;25.60;99.90
13610;DHT22;6876;50.788;4.940;2023-07-13T12:17:53;26.00;99.90
13610;DHT22;6876;50.788;4.940;2023-07-13T12:20:45;25.80;99.90
13610;DHT22;6876;50.788;4.940;2023-07-13T12:23:34;25.60;99.90
13610;DHT22;6876;50.788;4.940;2023-07-13T12:26:21;25.50;99.90
13610;DHT22;6876;50.788;4.940;2023-07-13T12:29:15;25.50;99.90
13610;DHT22;6876;50.788;4.940;2023-07-13T12:32:08;25.20;99.90
13610;DHT22;6876;50.788;4.940;2023-07-13T12:35:13;24.80;99.90
13610;DHT22;6876;50.788;4.940;2023-07-13T12:38:02;24.90;99.90
13610;DHT22;6876;50.788;4.940;2023-07-13T12:40:50;24.70;99.90
13610;DHT22;6876;50.788;4.940;2023-07-13T12:43:38;24.40;99.30
13610;DHT22;6876;50.788;4.940;2023-07-13T12:46:26;24.20;99.90
13610;DHT22;6876;50.788;4.940;2023-07-13T12:49:15;24.00;99.90
13610;DHT22;6876;50.788;4.940;2023-07-13T12:52:09;23.60;99.90
13610;DHT22;6876;50.788;4.940;2023-07-13T12:55:06;23.60;99.90
13610;DHT22;6876;50.788;4.940;2023-07-13T12:57:57;23.70;99.90
13610;DHT22;6876;50.788;4.940;2023-07-13T13:00:49;23.90;99.90
13610;DHT22;6876;50.788;4.940;2023-07-13T13:03:39;24.00;99.90
13610;DHT22;6876;50.788;4.940;2023-07-13T13:06:28;24.10;99.90
13610;DHT22;6876;50.788;4.940;2023-07-13T13:09:17;24.20;99.90
13610;DHT22;6876;50.788;4.940;2023-07-13T13:12:08;24.30;99.90
13610;DHT22;6876;50.788;4.940;2023-07-13T13:14:56;24.30;90.60
13610;DHT22;6876;50.788;4.940;2023-07-13T13:17:43;24.30;96.10
13610;DHT22;6876;50.788;4.940;2023-07-13T13:20:30;24.30;99.90
13610;DHT22;6876;50.788;4.940;2023-07-13T13:23:19;24.30;91.20
13610;DHT22;6876;50.788;4.940;2023-07-13T13:26:10;24.20;99.90
13610;DHT22;6876;50.788;4.940;2023-07-13T13:28:58;24.00;91.30
13610;DHT22;6876;50.788;4.940;2023-07-13T13:31:46;24.20;99.90
13610;DHT22;6876;50.788;4.940;2023-07-13T13:34:34;24.50;99.90
13610;DHT22;6876;50.788;4.940;2023-07-13T13:37:22;24.70;99.90
13610;DHT22;6876;50.788;4.940;2023-07-13T13:40:15;24.80;99.90
13610;DHT22;6876;50.788;4.940;2023-07-13T13:43:13;24.50;99.90
13610;DHT22;6876;50.788;4.940;2023-07-13T13:46:13;24.20;99.90
13610;DHT22;6876;50.788;4.940;2023-07-13T13:49:00;24.00;99.90
13610;DHT22;6876;50.788;4.940;2023-07-13T13:51:49;23.90;99.90
13610;DHT22;6876;50.788;4.940;2023-07-13T13:54:36;24.10;99.90
13610;DHT22;6876;50.788;4.940;2023-07-13T13:57:23;24.10;99.90
13610;DHT22;6876;50.788;4.940;2023-07-13T14:00:13;24.10;99.90
13610;DHT22;6876;50.788;4.940;2023-07-13T14:03:04;24.30;99.90
13610;DHT22;6876;50.788;4.940;2023-07-13T14:05:53;24.50;99.90
13610;DHT22;6876;50.788;4.940;2023-07-13T14:08:43;24.60;99.90
13610;DHT22;6876;50.788;4.940;2023-07-13T14:11:31;24.80;99.90
13610;DHT22;6876;50.788;4.940;2023-07-13T14:14:21;24.90;99.90
13610;DHT22;6876;50.788;4.940;2023-07-13T14:17:19;25.00;99.90
13610;DHT22;6876;50.788;4.940;2023-07-13T14:20:12;25.00;99.90
13610;DHT22;6876;50.788;4.940;2023-07-13T14:22:59;25.10;99.90
13610;DHT22;6876;50.788;4.940;2023-07-13T14:25:46;24.90;99.90
13610;DHT22;6876;50.788;4.940;2023-07-13T14:28:34;24.80;99.90
13610;DHT22;6876;50.788;4.940;2023-07-13T14:31:23;24.90;99.90
13610;DHT22;6876;50.788;4.940;2023-07-13T14:34:11;24.70;99.90
13610;DHT22;6876;50.788;4.940;2023-07-13T14:37:01;25.00;99.90
13610;DHT22;6876;50.788;4.940;2023-07-13T14:39:51;25.20;99.90
13610;DHT22;6876;50.788;4.940;2023-07-13T14:42:39;25.20;99.90
13610;DHT22;6876;50.788;4.940;2023-07-13T14:45:28;25.20;99.90
13610;DHT22;6876;50.788;4.940;2023-07-13T14:48:19;25.10;99.90
13610;DHT22;6876;50.788;4.940;2023-07-13T14:51:08;25.30;99.90
13610;DHT22;6876;50.788;4.940;2023-07-13T14:53:57;25.60;99.90
13610;DHT22;6876;50.788;4.940;2023-07-13T14:56:44;25.30;99.90
13610;DHT22;6876;50.788;4.940;2023-07-13T14:59:31;25.10;99.90
13610;DHT22;6876;50.788;4.940;2023-07-13T15:02:26;24.90;99.90
13610;DHT22;6876;50.788;4.940;2023-07-13T15:05:17;24.70;99.90
13610;DHT22;6876;50.788;4.940;2023-07-13T15:08:05;24.60;99.90
13610;DHT22;6876;50.788;4.940;2023-07-13T15:10:54;24.40;92.60
13610;DHT22;6876;50.788;4.940;2023-07-13T15:13:43;24.00;99.90
13610;DHT22;6876;50.788;4.940;2023-07-13T15:16:31;23.90;90.20
13610;DHT22;6876;50.788;4.940;2023-07-13T15:19:20;24.00;90.00
13610;DHT22;6876;50.788;4.940;2023-07-13T15:22:09;23.80;90.20
13610;DHT22;6876;50.788;4.940;2023-07-13T15:24:56;24.00;90.30
13610;DHT22;6876;50.788;4.940;2023-07-13T15:27:46;24.00;90.40
13610;DHT22;6876;50.788;4.940;2023-07-13T15:30:38;24.10;94.30
13610;DHT22;6876;50.788;4.940;2023-07-13T15:33:29;24.00;90.10
13610;DHT22;6876;50.788;4.940;2023-07-13T15:36:17;23.90;90.00
13610;DHT22;6876;50.788;4.940;2023-07-13T15:39:04;23.70;90.90
13610;DHT22;6876;50.788;4.940;2023-07-13T15:41:52;23.40;89.70
13610;DHT22;6876;50.788;4.940;2023-07-13T15:44:41;23.50;90.90
13610;DHT22;6876;50.788;4.940;2023-07-13T15:47:28;23.50;91.50
13610;DHT22;6876;50.788;4.940;2023-07-13T15:50:17;23.60;99.90
13610;DHT22;6876;50.788;4.940;2023-07-13T15:53:08;23.70;98.50
13610;DHT22;6876;50.788;4.940;2023-07-13T15:55:57;23.70;99.90
13610;DHT22;6876;50.788;4.940;2023-07-13T15:58:44;23.70;99.90
13610;DHT22;6876;50.788;4.940;2023-07-13T16:01:33;23.60;99.90
13610;DHT22;6876;50.788;4.940;2023-07-13T16:04:21;23.60;99.90
13610;DHT22;6876;50.788;4.940;2023-07-13T16:07:13;23.50;99.90
13610;DHT22;6876;50.788;4.940;2023-07-13T16:10:03;23.40;99.90
13610;DHT22;6876;50.788;4.940;2023-07-13T16:12:51;23.40;99.90
13610;DHT22;6876;50.788;4.940;2023-07-13T16:15:38;23.40;99.90
13610;DHT22;6876;50.788;4.940;2023-07-13T16:18:31;23.30;99.90
13610;DHT22;6876;50.788;4.940;2023-07-13T16:21:19;23.40;99.90
13610;DHT22;6876;50.788;4.940;2023-07-13T16:24:16;23.30;99.90
13610;DHT22;6876;50.788;4.940;2023-07-13T16:27:03;23.50;99.90
13610;DHT22;6876;50.788;4.940;2023-07-13T16:29:52;23.60;99.90
13610;DHT22;6876;50.788;4.940;2023-07-13T16:32:39;24.00;99.90
13610;DHT22;6876;50.788;4.940;2023-07-13T16:35:28;24.30;99.90
13610;DHT22;6876;50.788;4.940;2023-07-13T16:38:18;24.50;99.90
13610;DHT22;6876;50.788;4.940;2023-07-13T16:41:05;24.60;99.90
13610;DHT22;6876;50.788;4.940;2023-07-13T16:43:53;24.60;99.90
13610;DHT22;6876;50.788;4.940;2023-07-13T16:46:41;24.50;97.00
13610;DHT22;6876;50.788;4.940;2023-07-13T16:49:29;24.00;99.90
13610;DHT22;6876;50.788;4.940;2023-07-13T16:52:18;24.00;99.90
13610;DHT22;6876;50.788;4.940;2023-07-13T16:55:09;23.90;99.90
13610;DHT22;6876;50.788;4.940;2023-07-13T16:57:59;24.00;99.90
13610;DHT22;6876;50.788;4.940;2023-07-13T17:00:48;24.00;99.90
13610;DHT22;6876;50.788;4.940;2023-07-13T17:03:38;23.70;99.90
13610;DHT22;6876;50.788;4.940;2023-07-13T17:06:29;23.70;99.90
13610;DHT22;6876;50.788;4.940;2023-07-13T17:09:18;23.60;99.90
13610;DHT22;6876;50.788;4.940;2023-07-13T17:12:07;23.50;99.90
13610;DHT22;6876;50.788;4.940;2023-07-13T17:14:54;23.40;99.90
13610;DHT22;6876;50.788;4.940;2023-07-13T17:17:42;23.30;99.90
13610;DHT22;6876;50.788;4.940;2023-07-13T17:20:32;23.20;99.90
13610;DHT22;6876;50.788;4.940;2023-07-13T17:23:25;23.10;99.90
13610;DHT22;6876;50.788;4.940;2023-07-13T17:26:14;23.00;99.90
13610;DHT22;6876;50.788;4.940;2023-07-13T17:29:01;23.00;99.90
13610;DHT22;6876;50.788;4.940;2023-07-13T17:31:49;22.90;99.90
13610;DHT22;6876;50.788;4.940;2023-07-13T17:34:37;23.00;99.90
13610;DHT22;6876;50.788;4.940;2023-07-13T17:37:31;22.90;99.90
13610;DHT22;6876;50.788;4.940;2023-07-13T17:40:18;23.00;99.90
13610;DHT22;6876;50.788;4.940;2023-07-13T17:43:09;23.00;99.90
13610;DHT22;6876;50.788;4.940;2023-07-13T17:45:56;23.10;99.90
13610;DHT22;6876;50.788;4.940;2023-07-13T17:48:46;23.00;99.90
13610;DHT22;6876;50.788;4.940;2023-07-13T17:51:35;23.10;99.90
13610;DHT22;6876;50.788;4.940;2023-07-13T17:54:23;23.00;99.90
13610;DHT22;6876;50.788;4.940;2023-07-13T17:57:11;23.10;99.90
13610;DHT22;6876;50.788;4.940;2023-07-13T18:00:00;23.10;99.90
13610;DHT22;6876;50.788;4.940;2023-07-13T18:02:54;23.10;99.90
13610;DHT22;6876;50.788;4.940;2023-07-13T18:05:42;23.10;99.90
13610;DHT22;6876;50.788;4.940;2023-07-13T18:08:31;23.10;99.90
13610;DHT22;6876;50.788;4.940;2023-07-13T18:11:20;23.00;99.90
13610;DHT22;6876;50.788;4.940;2023-07-13T18:14:08;23.00;99.90